sensor_id;sensor_type;location;lat;lon;timestamp;P1;durP1;ratioP1;P2;durP2;ratioP2
2452;SDS011;63678;47.994;7.854;2023-11-21T00:00:21;9.40;;;3.08;;
2452;SDS011;63678;47.994;7.854;2023-11-21T00:02:53;10.13;;;2.60;;
2452;SDS011;63678;47.994;7.854;2023-11-21T00:05:26;8.63;;;2.78;;
2452;SDS011;63678;47.994;7.854;2023-11-21T00:07:59;9.93;;;2.70;;
2452;SDS011;63678;47.994;7.854;2023-11-21T00:10:31;9.38;;;2.20;;
2452;SDS011;63678;47.994;7.854;2023-11-21T00:13:03;8.77;;;2.22;;
2452;SDS011;63678;47.994;7.854;2023-11-21T00:15:35;6.87;;;1.90;;
2452;SDS011;63678;47.994;7.854;2023-11-21T00:18:08;9.32;;;2.45;;
2452;SDS011;63678;47.994;7.854;2023-11-21T00:20:40;8.45;;;2.72;;
2452;SDS011;63678;47.994;7.854;2023-11-21T00:23:13;15.77;;;3.30;;
2452;SDS011;63678;47.994;7.854;2023-11-21T00:25:46;5.35;;;2.47;;
2452;SDS011;63678;47.994;7.854;2023-11-21T00:28:18;9.70;;;2.43;;
2452;SDS011;63678;47.994;7.854;2023-11-21T00:30:52;12.20;;;2.95;;
2452;SDS011;63678;47.994;7.854;2023-11-21T00:33:25;8.80;;;2.50;;
2452;SDS011;63678;47.994;7.854;2023-11-21T00:35:59;8.82;;;2.28;;
2452;SDS011;63678;47.994;7.854;2023-11-21T00:38:32;8.48;;;2.53;;
2452;SDS011;63678;47.994;7.854;2023-11-21T00:41:04;8.73;;;2.27;;
2452;SDS011;63678;47.994;7.854;2023-11-21T00:43:37;6.22;;;2.00;;
2452;SDS011;63678;47.994;7.854;2023-11-21T00:46:10;9.18;;;2.25;;
2452;SDS011;63678;47.994;7.854;2023-11-21T00:48:42;8.65;;;1.60;;
2452;SDS011;63678;47.994;7.854;2023-11-21T00:51:15;6.35;;;2.30;;
2452;SDS011;63678;47.994;7.854;2023-11-21T00:53:47;7.50;;;1.97;;
2452;SDS011;63678;47.994;7.854;2023-11-21T00:56:20;7.63;;;2.20;;
2452;SDS011;63678;47.994;7.854;2023-11-21T00:58:53;10.25;;;2.83;;
2452;SDS011;63678;47.994;7.854;2023-11-21T01:01:26;8.18;;;1.98;;
2452;SDS011;63678;47.994;7.854;2023-11-21T01:03:58;5.35;;;2.30;;
2452;SDS011;63678;47.994;7.854;2023-11-21T01:06:31;9.07;;;2.57;;
2452;SDS011;63678;47.994;7.854;2023-11-21T01:09:03;5.30;;;1.67;;
2452;SDS011;63678;47.994;7.854;2023-11-21T01:14:44;6.63;;;1.70;;
2452;SDS011;63678;47.994;7.854;2023-11-21T01:17:17;7.30;;;1.70;;
2452;SDS011;63678;47.994;7.854;2023-11-21T01:19:50;4.23;;;1.77;;
2452;SDS011;63678;47.994;7.854;2023-11-21T01:22:22;7.15;;;2.03;;
2452;SDS011;63678;47.994;7.854;2023-11-21T01:24:57;6.10;;;2.13;;
2452;SDS011;63678;47.994;7.854;2023-11-21T01:27:30;7.45;;;1.90;;
2452;SDS011;63678;47.994;7.854;2023-11-21T01:30:02;5.18;;;1.65;;
2452;SDS011;63678;47.994;7.854;2023-11-21T01:32:36;5.13;;;1.60;;
2452;SDS011;63678;47.994;7.854;2023-11-21T01:35:09;4.72;;;1.65;;
2452;SDS011;63678;47.994;7.854;2023-11-21T01:37:42;4.85;;;1.83;;
2452;SDS011;63678;47.994;7.854;2023-11-21T01:40:14;7.28;;;1.45;;
2452;SDS011;63678;47.994;7.854;2023-11-21T01:42:48;4.05;;;1.63;;
2452;SDS011;63678;47.994;7.854;2023-11-21T01:45:20;8.50;;;2.10;;
2452;SDS011;63678;47.994;7.854;2023-11-21T01:47:53;5.47;;;1.92;;
2452;SDS011;63678;47.994;7.854;2023-11-21T01:50:28;7.40;;;1.98;;
2452;SDS011;63678;47.994;7.854;2023-11-21T01:53:00;4.55;;;1.23;;
2452;SDS011;63678;47.994;7.854;2023-11-21T01:55:34;3.95;;;1.27;;
2452;SDS011;63678;47.994;7.854;2023-11-21T01:58:06;3.27;;;1.30;;
2452;SDS011;63678;47.994;7.854;2023-11-21T02:00:39;5.32;;;1.48;;
2452;SDS011;63678;47.994;7.854;2023-11-21T02:03:11;5.82;;;1.60;;
2452;SDS011;63678;47.994;7.854;2023-11-21T02:05:44;6.22;;;1.80;;
2452;SDS011;63678;47.994;7.854;2023-11-21T02:08:16;4.65;;;1.35;;
2452;SDS011;63678;47.994;7.854;2023-11-21T02:10:51;6.10;;;1.60;;
2452;SDS011;63678;47.994;7.854;2023-11-21T02:13:23;4.80;;;1.40;;
2452;SDS011;63678;47.994;7.854;2023-11-21T02:15:56;5.00;;;1.67;;
2452;SDS011;63678;47.994;7.854;2023-11-21T02:18:29;4.93;;;1.58;;
2452;SDS011;63678;47.994;7.854;2023-11-21T02:21:03;4.00;;;1.40;;
2452;SDS011;63678;47.994;7.854;2023-11-21T02:23:37;5.03;;;2.23;;
2452;SDS011;63678;47.994;7.854;2023-11-21T02:26:13;4.05;;;1.40;;
2452;SDS011;63678;47.994;7.854;2023-11-21T02:28:46;6.43;;;1.73;;
2452;SDS011;63678;47.994;7.854;2023-11-21T02:31:18;4.22;;;1.50;;
2452;SDS011;63678;47.994;7.854;2023-11-21T02:33:51;4.88;;;1.60;;
2452;SDS011;63678;47.994;7.854;2023-11-21T02:36:25;6.33;;;1.43;;
2452;SDS011;63678;47.994;7.854;2023-11-21T02:38:57;4.25;;;1.40;;
2452;SDS011;63678;47.994;7.854;2023-11-21T02:41:30;4.53;;;1.30;;
2452;SDS011;63678;47.994;7.854;2023-11-21T02:44:03;6.85;;;1.73;;
2452;SDS011;63678;47.994;7.854;2023-11-21T02:46:37;5.22;;;1.40;;
2452;SDS011;63678;47.994;7.854;2023-11-21T02:49:12;5.67;;;1.93;;
2452;SDS011;63678;47.994;7.854;2023-11-21T02:51:44;5.75;;;1.60;;
2452;SDS011;63678;47.994;7.854;2023-11-21T02:54:16;7.22;;;1.95;;
2452;SDS011;63678;47.994;7.854;2023-11-21T02:56:50;6.32;;;2.00;;
2452;SDS011;63678;47.994;7.854;2023-11-21T02:59:23;5.60;;;2.22;;
2452;SDS011;63678;47.994;7.854;2023-11-21T03:01:56;4.60;;;1.70;;
2452;SDS011;63678;47.994;7.854;2023-11-21T03:04:28;5.47;;;2.08;;
2452;SDS011;63678;47.994;7.854;2023-11-21T03:07:04;7.18;;;1.65;;
2452;SDS011;63678;47.994;7.854;2023-11-21T03:09:37;5.28;;;1.60;;
2452;SDS011;63678;47.994;7.854;2023-11-21T03:12:09;6.82;;;1.90;;
2452;SDS011;63678;47.994;7.854;2023-11-21T03:14:43;8.10;;;2.00;;
2452;SDS011;63678;47.994;7.854;2023-11-21T03:17:16;4.65;;;1.60;;
2452;SDS011;63678;47.994;7.854;2023-11-21T03:19:48;4.22;;;1.77;;
2452;SDS011;63678;47.994;7.854;2023-11-21T03:22:20;4.70;;;1.60;;
2452;SDS011;63678;47.994;7.854;2023-11-21T03:24:53;3.75;;;1.50;;
2452;SDS011;63678;47.994;7.854;2023-11-21T03:27:25;6.07;;;1.67;;
2452;SDS011;63678;47.994;7.854;2023-11-21T03:29:58;4.35;;;1.50;;
2452;SDS011;63678;47.994;7.854;2023-11-21T03:32:30;4.65;;;1.80;;
2452;SDS011;63678;47.994;7.854;2023-11-21T03:35:04;3.70;;;1.50;;
2452;SDS011;63678;47.994;7.854;2023-11-21T03:37:38;5.88;;;1.70;;
2452;SDS011;63678;47.994;7.854;2023-11-21T03:40:15;5.83;;;1.70;;
2452;SDS011;63678;47.994;7.854;2023-11-21T03:42:47;4.40;;;1.27;;
2452;SDS011;63678;47.994;7.854;2023-11-21T03:45:20;5.70;;;1.80;;
2452;SDS011;63678;47.994;7.854;2023-11-21T03:47:52;3.10;;;1.27;;
2452;SDS011;63678;47.994;7.854;2023-11-21T03:50:25;3.65;;;1.40;;
2452;SDS011;63678;47.994;7.854;2023-11-21T03:52:57;5.57;;;1.40;;
2452;SDS011;63678;47.994;7.854;2023-11-21T03:55:32;4.93;;;1.38;;
2452;SDS011;63678;47.994;7.854;2023-11-21T03:58:04;5.13;;;1.52;;
2452;SDS011;63678;47.994;7.854;2023-11-21T04:00:37;5.50;;;1.48;;
2452;SDS011;63678;47.994;7.854;2023-11-21T04:03:09;4.00;;;1.60;;
2452;SDS011;63678;47.994;7.854;2023-11-21T04:05:42;6.27;;;1.20;;
2452;SDS011;63678;47.994;7.854;2023-11-21T04:08:14;4.25;;;1.45;;
2452;SDS011;63678;47.994;7.854;2023-11-21T04:10:47;6.25;;;1.58;;
2452;SDS011;63678;47.994;7.854;2023-11-21T04:13:20;4.60;;;1.60;;
2452;SDS011;63678;47.994;7.854;2023-11-21T04:15:53;6.28;;;1.58;;
2452;SDS011;63678;47.994;7.854;2023-11-21T04:18:25;5.87;;;1.40;;
2452;SDS011;63678;47.994;7.854;2023-11-21T04:20:58;3.63;;;1.45;;
2452;SDS011;63678;47.994;7.854;2023-11-21T04:23:30;4.40;;;1.60;;
2452;SDS011;63678;47.994;7.854;2023-11-21T04:26:03;5.47;;;1.67;;
2452;SDS011;63678;47.994;7.854;2023-11-21T04:28:36;5.72;;;1.70;;
2452;SDS011;63678;47.994;7.854;2023-11-21T04:31:08;4.70;;;1.50;;
2452;SDS011;63678;47.994;7.854;2023-11-21T04:33:41;6.40;;;1.63;;
2452;SDS011;63678;47.994;7.854;2023-11-21T04:36:13;3.47;;;1.40;;
2452;SDS011;63678;47.994;7.854;2023-11-21T04:38:46;5.47;;;1.60;;
2452;SDS011;63678;47.994;7.854;2023-11-21T04:41:18;3.22;;;1.30;;
2452;SDS011;63678;47.994;7.854;2023-11-21T04:43:50;3.97;;;1.27;;
2452;SDS011;63678;47.994;7.854;2023-11-21T04:46:23;4.15;;;1.55;;
2452;SDS011;63678;47.994;7.854;2023-11-21T04:48:55;5.30;;;1.60;;
2452;SDS011;63678;47.994;7.854;2023-11-21T04:51:28;7.35;;;2.00;;
2452;SDS011;63678;47.994;7.854;2023-11-21T04:54:00;8.27;;;2.05;;
2452;SDS011;63678;47.994;7.854;2023-11-21T04:56:33;5.50;;;1.70;;
2452;SDS011;63678;47.994;7.854;2023-11-21T04:59:05;4.55;;;1.60;;
2452;SDS011;63678;47.994;7.854;2023-11-21T05:01:38;4.35;;;2.00;;
2452;SDS011;63678;47.994;7.854;2023-11-21T05:04:11;4.72;;;1.48;;
2452;SDS011;63678;47.994;7.854;2023-11-21T05:06:43;4.57;;;1.70;;
2452;SDS011;63678;47.994;7.854;2023-11-21T05:09:16;6.27;;;1.50;;
2452;SDS011;63678;47.994;7.854;2023-11-21T05:11:49;6.68;;;2.17;;
2452;SDS011;63678;47.994;7.854;2023-11-21T05:14:21;7.00;;;2.00;;
2452;SDS011;63678;47.994;7.854;2023-11-21T05:16:54;4.47;;;1.85;;
2452;SDS011;63678;47.994;7.854;2023-11-21T05:19:26;6.45;;;2.10;;
2452;SDS011;63678;47.994;7.854;2023-11-21T05:21:59;6.83;;;2.53;;
2452;SDS011;63678;47.994;7.854;2023-11-21T05:24:32;4.30;;;2.40;;
2452;SDS011;63678;47.994;7.854;2023-11-21T05:27:05;7.68;;;1.73;;
2452;SDS011;63678;47.994;7.854;2023-11-21T05:29:37;4.22;;;1.52;;
2452;SDS011;63678;47.994;7.854;2023-11-21T05:32:10;5.25;;;1.52;;
2452;SDS011;63678;47.994;7.854;2023-11-21T05:34:42;7.80;;;2.17;;
2452;SDS011;63678;47.994;7.854;2023-11-21T05:37:15;5.22;;;1.40;;
2452;SDS011;63678;47.994;7.854;2023-11-21T05:39:49;3.90;;;2.10;;
2452;SDS011;63678;47.994;7.854;2023-11-21T05:42:22;5.40;;;1.98;;
2452;SDS011;63678;47.994;7.854;2023-11-21T05:44:56;5.63;;;2.05;;
2452;SDS011;63678;47.994;7.854;2023-11-21T05:47:31;6.97;;;1.87;;
2452;SDS011;63678;47.994;7.854;2023-11-21T05:50:04;6.07;;;2.00;;
2452;SDS011;63678;47.994;7.854;2023-11-21T05:52:38;6.13;;;2.10;;
2452;SDS011;63678;47.994;7.854;2023-11-21T05:55:12;3.92;;;2.30;;
2452;SDS011;63678;47.994;7.854;2023-11-21T05:57:45;9.02;;;2.40;;
2452;SDS011;63678;47.994;7.854;2023-11-21T06:00:17;7.13;;;2.40;;
2452;SDS011;63678;47.994;7.854;2023-11-21T06:02:53;7.30;;;2.72;;
2452;SDS011;63678;47.994;7.854;2023-11-21T06:05:27;4.80;;;2.55;;
2452;SDS011;63678;47.994;7.854;2023-11-21T06:07:59;5.70;;;2.83;;
2452;SDS011;63678;47.994;7.854;2023-11-21T06:10:33;5.75;;;2.63;;
2452;SDS011;63678;47.994;7.854;2023-11-21T06:13:06;5.90;;;2.80;;
2452;SDS011;63678;47.994;7.854;2023-11-21T06:15:39;6.18;;;3.13;;
2452;SDS011;63678;47.994;7.854;2023-11-21T06:18:12;7.38;;;3.40;;
2452;SDS011;63678;47.994;7.854;2023-11-21T06:20:46;9.48;;;4.03;;
2452;SDS011;63678;47.994;7.854;2023-11-21T06:23:18;8.63;;;4.07;;
2452;SDS011;63678;47.994;7.854;2023-11-21T06:25:51;8.60;;;3.53;;
2452;SDS011;63678;47.994;7.854;2023-11-21T06:28:24;7.63;;;3.72;;
2452;SDS011;63678;47.994;7.854;2023-11-21T06:30:57;10.55;;;3.45;;
2452;SDS011;63678;47.994;7.854;2023-11-21T06:33:33;8.10;;;3.63;;
2452;SDS011;63678;47.994;7.854;2023-11-21T06:36:06;6.32;;;2.75;;
2452;SDS011;63678;47.994;7.854;2023-11-21T06:38:39;5.83;;;3.00;;
2452;SDS011;63678;47.994;7.854;2023-11-21T06:41:12;8.68;;;2.97;;
2452;SDS011;63678;47.994;7.854;2023-11-21T06:43:47;5.53;;;2.45;;
2452;SDS011;63678;47.994;7.854;2023-11-21T06:46:20;5.50;;;2.83;;
2452;SDS011;63678;47.994;7.854;2023-11-21T06:48:53;6.47;;;3.17;;
2452;SDS011;63678;47.994;7.854;2023-11-21T06:51:29;7.97;;;3.10;;
2452;SDS011;63678;47.994;7.854;2023-11-21T06:54:02;7.95;;;3.53;;
2452;SDS011;63678;47.994;7.854;2023-11-21T06:56:35;6.75;;;3.10;;
2452;SDS011;63678;47.994;7.854;2023-11-21T06:59:07;8.75;;;4.05;;
2452;SDS011;63678;47.994;7.854;2023-11-21T07:01:40;5.03;;;2.45;;
2452;SDS011;63678;47.994;7.854;2023-11-21T07:04:13;7.23;;;3.40;;
2452;SDS011;63678;47.994;7.854;2023-11-21T07:06:46;6.50;;;3.40;;
2452;SDS011;63678;47.994;7.854;2023-11-21T07:09:19;7.47;;;3.50;;
2452;SDS011;63678;47.994;7.854;2023-11-21T07:11:54;5.95;;;3.40;;
2452;SDS011;63678;47.994;7.854;2023-11-21T07:14:28;5.85;;;3.33;;
2452;SDS011;63678;47.994;7.854;2023-11-21T07:17:01;6.13;;;2.70;;
2452;SDS011;63678;47.994;7.854;2023-11-21T07:19:35;4.88;;;2.65;;
2452;SDS011;63678;47.994;7.854;2023-11-21T07:22:08;6.55;;;2.85;;
2452;SDS011;63678;47.994;7.854;2023-11-21T07:24:40;7.82;;;3.00;;
2452;SDS011;63678;47.994;7.854;2023-11-21T07:27:15;6.50;;;3.47;;
2452;SDS011;63678;47.994;7.854;2023-11-21T07:29:48;7.70;;;3.50;;
2452;SDS011;63678;47.994;7.854;2023-11-21T07:32:20;6.47;;;2.92;;
2452;SDS011;63678;47.994;7.854;2023-11-21T07:34:52;6.32;;;2.20;;
2452;SDS011;63678;47.994;7.854;2023-11-21T07:37:25;5.60;;;2.60;;
2452;SDS011;63678;47.994;7.854;2023-11-21T07:40:01;5.10;;;1.80;;
2452;SDS011;63678;47.994;7.854;2023-11-21T07:42:34;4.67;;;1.73;;
2452;SDS011;63678;47.994;7.854;2023-11-21T07:45:08;5.40;;;2.20;;
2452;SDS011;63678;47.994;7.854;2023-11-21T07:47:41;6.70;;;3.03;;
2452;SDS011;63678;47.994;7.854;2023-11-21T07:50:35;4.95;;;2.40;;
2452;SDS011;63678;47.994;7.854;2023-11-21T07:53:09;6.93;;;2.53;;
2452;SDS011;63678;47.994;7.854;2023-11-21T07:55:42;5.03;;;2.67;;
2452;SDS011;63678;47.994;7.854;2023-11-21T07:58:17;5.85;;;2.42;;
2452;SDS011;63678;47.994;7.854;2023-11-21T08:00:51;7.32;;;2.90;;
2452;SDS011;63678;47.994;7.854;2023-11-21T08:03:45;7.07;;;2.75;;
2452;SDS011;63678;47.994;7.854;2023-11-21T08:06:19;5.30;;;2.88;;
2452;SDS011;63678;47.994;7.854;2023-11-21T08:08:56;8.30;;;2.67;;
2452;SDS011;63678;47.994;7.854;2023-11-21T08:11:28;5.72;;;2.80;;
2452;SDS011;63678;47.994;7.854;2023-11-21T08:14:03;6.95;;;2.42;;
2452;SDS011;63678;47.994;7.854;2023-11-21T08:16:38;6.38;;;2.83;;
2452;SDS011;63678;47.994;7.854;2023-11-21T08:19:11;5.95;;;2.28;;
2452;SDS011;63678;47.994;7.854;2023-11-21T08:21:43;7.13;;;3.40;;
2452;SDS011;63678;47.994;7.854;2023-11-21T08:24:18;5.53;;;2.83;;
2452;SDS011;63678;47.994;7.854;2023-11-21T08:26:52;5.13;;;2.88;;
2452;SDS011;63678;47.994;7.854;2023-11-21T08:29:26;5.80;;;3.00;;
2452;SDS011;63678;47.994;7.854;2023-11-21T08:31:59;7.82;;;3.30;;
2452;SDS011;63678;47.994;7.854;2023-11-21T08:34:52;7.10;;;2.93;;
2452;SDS011;63678;47.994;7.854;2023-11-21T08:37:26;5.00;;;2.38;;
2452;SDS011;63678;47.994;7.854;2023-11-21T08:40:06;4.88;;;2.58;;
2452;SDS011;63678;47.994;7.854;2023-11-21T08:42:46;6.22;;;2.63;;
2452;SDS011;63678;47.994;7.854;2023-11-21T08:45:23;4.47;;;2.35;;
2452;SDS011;63678;47.994;7.854;2023-11-21T08:47:57;5.40;;;2.47;;
2452;SDS011;63678;47.994;7.854;2023-11-21T08:50:36;6.13;;;2.95;;
2452;SDS011;63678;47.994;7.854;2023-11-21T08:53:10;5.93;;;3.00;;
2452;SDS011;63678;47.994;7.854;2023-11-21T08:56:05;6.47;;;2.85;;
2452;SDS011;63678;47.994;7.854;2023-11-21T08:58:41;6.28;;;3.10;;
2452;SDS011;63678;47.994;7.854;2023-11-21T09:01:56;6.53;;;2.90;;
2452;SDS011;63678;47.994;7.854;2023-11-21T09:04:29;6.50;;;2.80;;
2452;SDS011;63678;47.994;7.854;2023-11-21T09:07:02;6.32;;;2.97;;
2452;SDS011;63678;47.994;7.854;2023-11-21T09:09:34;6.20;;;2.97;;
2452;SDS011;63678;47.994;7.854;2023-11-21T09:12:07;6.07;;;3.20;;
2452;SDS011;63678;47.994;7.854;2023-11-21T09:14:43;5.30;;;2.80;;
2452;SDS011;63678;47.994;7.854;2023-11-21T09:17:18;6.35;;;2.80;;
2452;SDS011;63678;47.994;7.854;2023-11-21T09:19:51;7.10;;;3.10;;
2452;SDS011;63678;47.994;7.854;2023-11-21T09:22:23;5.40;;;2.88;;
2452;SDS011;63678;47.994;7.854;2023-11-21T09:24:57;7.80;;;3.30;;
2452;SDS011;63678;47.994;7.854;2023-11-21T09:27:31;6.87;;;3.00;;
2452;SDS011;63678;47.994;7.854;2023-11-21T09:30:04;6.00;;;2.80;;
2452;SDS011;63678;47.994;7.854;2023-11-21T09:32:40;6.75;;;3.13;;
2452;SDS011;63678;47.994;7.854;2023-11-21T09:35:13;5.05;;;2.80;;
2452;SDS011;63678;47.994;7.854;2023-11-21T09:37:46;5.72;;;2.85;;
2452;SDS011;63678;47.994;7.854;2023-11-21T09:40:21;6.33;;;2.77;;
2452;SDS011;63678;47.994;7.854;2023-11-21T09:42:55;5.70;;;2.80;;
2452;SDS011;63678;47.994;7.854;2023-11-21T09:45:29;4.93;;;2.53;;
2452;SDS011;63678;47.994;7.854;2023-11-21T09:48:06;5.43;;;2.70;;
2452;SDS011;63678;47.994;7.854;2023-11-21T09:50:41;6.00;;;2.63;;
2452;SDS011;63678;47.994;7.854;2023-11-21T09:53:18;5.90;;;2.20;;
2452;SDS011;63678;47.994;7.854;2023-11-21T09:55:53;5.63;;;2.75;;
2452;SDS011;63678;47.994;7.854;2023-11-21T09:58:26;6.22;;;2.60;;
2452;SDS011;63678;47.994;7.854;2023-11-21T10:00:59;7.93;;;2.50;;
2452;SDS011;63678;47.994;7.854;2023-11-21T10:03:35;6.05;;;2.85;;
2452;SDS011;63678;47.994;7.854;2023-11-21T10:06:11;7.13;;;3.30;;
2452;SDS011;63678;47.994;7.854;2023-11-21T10:08:46;7.53;;;3.33;;
2452;SDS011;63678;47.994;7.854;2023-11-21T10:11:26;7.63;;;3.15;;
2452;SDS011;63678;47.994;7.854;2023-11-21T10:14:01;6.95;;;2.60;;
2452;SDS011;63678;47.994;7.854;2023-11-21T10:16:38;5.40;;;2.53;;
2452;SDS011;63678;47.994;7.854;2023-11-21T10:19:12;6.07;;;2.67;;
2452;SDS011;63678;47.994;7.854;2023-11-21T10:21:48;6.00;;;2.22;;
2452;SDS011;63678;47.994;7.854;2023-11-21T10:24:22;7.32;;;2.97;;
2452;SDS011;63678;47.994;7.854;2023-11-21T10:26:55;5.68;;;2.40;;
2452;SDS011;63678;47.994;7.854;2023-11-21T10:29:30;5.15;;;2.63;;
2452;SDS011;63678;47.994;7.854;2023-11-21T10:32:07;6.43;;;2.73;;
2452;SDS011;63678;47.994;7.854;2023-11-21T10:34:40;6.10;;;2.58;;
2452;SDS011;63678;47.994;7.854;2023-11-21T10:37:13;8.55;;;3.88;;
2452;SDS011;63678;47.994;7.854;2023-11-21T10:39:48;5.40;;;3.08;;
2452;SDS011;63678;47.994;7.854;2023-11-21T10:42:21;7.05;;;3.33;;
2452;SDS011;63678;47.994;7.854;2023-11-21T10:44:56;4.63;;;2.80;;
2452;SDS011;63678;47.994;7.854;2023-11-21T10:47:28;7.82;;;2.90;;
2452;SDS011;63678;47.994;7.854;2023-11-21T10:50:03;5.80;;;2.90;;
2452;SDS011;63678;47.994;7.854;2023-11-21T10:52:37;6.15;;;3.10;;
2452;SDS011;63678;47.994;7.854;2023-11-21T10:55:21;5.72;;;2.58;;
2452;SDS011;63678;47.994;7.854;2023-11-21T10:57:55;5.73;;;2.70;;
2452;SDS011;63678;47.994;7.854;2023-11-21T11:00:32;7.78;;;3.10;;
2452;SDS011;63678;47.994;7.854;2023-11-21T11:03:05;5.40;;;2.60;;
2452;SDS011;63678;47.994;7.854;2023-11-21T11:05:45;5.60;;;2.80;;
2452;SDS011;63678;47.994;7.854;2023-11-21T11:08:24;5.05;;;2.38;;
2452;SDS011;63678;47.994;7.854;2023-11-21T11:10:59;6.53;;;2.40;;
2452;SDS011;63678;47.994;7.854;2023-11-21T11:13:32;6.38;;;2.22;;
2452;SDS011;63678;47.994;7.854;2023-11-21T11:16:04;8.05;;;2.75;;
2452;SDS011;63678;47.994;7.854;2023-11-21T11:18:38;6.45;;;2.45;;
2452;SDS011;63678;47.994;7.854;2023-11-21T11:21:15;7.72;;;3.15;;
2452;SDS011;63678;47.994;7.854;2023-11-21T11:24:20;6.40;;;3.17;;
2452;SDS011;63678;47.994;7.854;2023-11-21T11:36:37;6.30;;;3.08;;
2452;SDS011;63678;47.994;7.854;2023-11-21T11:39:27;6.67;;;3.20;;
2452;SDS011;63678;47.994;7.854;2023-11-21T11:42:02;6.25;;;3.17;;
2452;SDS011;63678;47.994;7.854;2023-11-21T11:49:59;9.25;;;4.40;;
2452;SDS011;63678;47.994;7.854;2023-11-21T11:52:52;6.60;;;3.50;;
2452;SDS011;63678;47.994;7.854;2023-11-21T11:55:26;7.80;;;3.88;;
2452;SDS011;63678;47.994;7.854;2023-11-21T11:58:04;8.65;;;3.63;;
2452;SDS011;63678;47.994;7.854;2023-11-21T12:00:38;7.07;;;3.55;;
2452;SDS011;63678;47.994;7.854;2023-11-21T12:03:12;6.75;;;3.58;;
2452;SDS011;63678;47.994;7.854;2023-11-21T12:05:46;7.03;;;3.70;;
2452;SDS011;63678;47.994;7.854;2023-11-21T12:08:18;7.15;;;4.22;;
2452;SDS011;63678;47.994;7.854;2023-11-21T12:10:52;8.13;;;3.28;;
2452;SDS011;63678;47.994;7.854;2023-11-21T12:13:26;7.53;;;3.50;;
2452;SDS011;63678;47.994;7.854;2023-11-21T12:16:00;8.05;;;4.03;;
2452;SDS011;63678;47.994;7.854;2023-11-21T12:18:32;9.67;;;4.87;;
2452;SDS011;63678;47.994;7.854;2023-11-21T12:21:05;8.85;;;4.35;;
2452;SDS011;63678;47.994;7.854;2023-11-21T12:23:41;8.75;;;4.40;;
2452;SDS011;63678;47.994;7.854;2023-11-21T12:26:14;7.78;;;3.95;;
2452;SDS011;63678;47.994;7.854;2023-11-21T12:28:51;6.55;;;3.72;;
2452;SDS011;63678;47.994;7.854;2023-11-21T12:31:30;7.97;;;4.40;;
2452;SDS011;63678;47.994;7.854;2023-11-21T12:34:03;9.30;;;4.65;;
2452;SDS011;63678;47.994;7.854;2023-11-21T12:36:36;8.15;;;4.35;;
2452;SDS011;63678;47.994;7.854;2023-11-21T12:39:08;9.68;;;4.97;;
2452;SDS011;63678;47.994;7.854;2023-11-21T12:41:42;10.95;;;5.40;;
2452;SDS011;63678;47.994;7.854;2023-11-21T12:44:15;7.80;;;4.33;;
2452;SDS011;63678;47.994;7.854;2023-11-21T12:46:47;9.30;;;5.13;;
2452;SDS011;63678;47.994;7.854;2023-11-21T12:49:20;9.30;;;4.68;;
2452;SDS011;63678;47.994;7.854;2023-11-21T12:51:53;11.23;;;5.28;;
2452;SDS011;63678;47.994;7.854;2023-11-21T12:54:26;9.95;;;5.10;;
2452;SDS011;63678;47.994;7.854;2023-11-21T12:56:59;10.43;;;5.13;;
2452;SDS011;63678;47.994;7.854;2023-11-21T12:59:33;12.02;;;6.03;;
2452;SDS011;63678;47.994;7.854;2023-11-21T13:02:06;24.10;;;11.32;;
2452;SDS011;63678;47.994;7.854;2023-11-21T13:04:40;20.75;;;8.23;;
2452;SDS011;63678;47.994;7.854;2023-11-21T13:07:12;13.85;;;7.10;;
2452;SDS011;63678;47.994;7.854;2023-11-21T13:09:46;13.07;;;5.60;;
2452;SDS011;63678;47.994;7.854;2023-11-21T13:12:23;10.23;;;5.40;;
2452;SDS011;63678;47.994;7.854;2023-11-21T13:14:56;10.68;;;6.57;;
2452;SDS011;63678;47.994;7.854;2023-11-21T13:17:35;11.15;;;5.85;;
2452;SDS011;63678;47.994;7.854;2023-11-21T13:20:08;8.85;;;5.22;;
2452;SDS011;63678;47.994;7.854;2023-11-21T13:22:50;7.90;;;4.20;;
2452;SDS011;63678;47.994;7.854;2023-11-21T13:25:31;12.27;;;5.40;;
2452;SDS011;63678;47.994;7.854;2023-11-21T13:28:03;8.63;;;5.28;;
2452;SDS011;63678;47.994;7.854;2023-11-21T13:30:35;10.05;;;5.43;;
2452;SDS011;63678;47.994;7.854;2023-11-21T13:33:08;8.52;;;4.10;;
2452;SDS011;63678;47.994;7.854;2023-11-21T13:35:43;9.47;;;4.90;;
2452;SDS011;63678;47.994;7.854;2023-11-21T13:38:23;9.93;;;5.30;;
2452;SDS011;63678;47.994;7.854;2023-11-21T13:40:55;8.23;;;4.45;;
2452;SDS011;63678;47.994;7.854;2023-11-21T13:43:29;7.18;;;4.43;;
2452;SDS011;63678;47.994;7.854;2023-11-21T13:46:03;7.03;;;4.15;;
2452;SDS011;63678;47.994;7.854;2023-11-21T13:48:45;9.87;;;3.90;;
2452;SDS011;63678;47.994;7.854;2023-11-21T13:51:27;7.07;;;3.83;;
2452;SDS011;63678;47.994;7.854;2023-11-21T13:54:17;5.75;;;3.33;;
2452;SDS011;63678;47.994;7.854;2023-11-21T13:56:51;6.88;;;3.90;;
2452;SDS011;63678;47.994;7.854;2023-11-21T13:59:25;9.05;;;3.90;;
2452;SDS011;63678;47.994;7.854;2023-11-21T14:02:00;7.27;;;4.50;;
2452;SDS011;63678;47.994;7.854;2023-11-21T14:04:48;6.80;;;3.67;;
2452;SDS011;63678;47.994;7.854;2023-11-21T14:07:27;7.40;;;4.10;;
2452;SDS011;63678;47.994;7.854;2023-11-21T14:10:09;7.68;;;4.43;;
2452;SDS011;63678;47.994;7.854;2023-11-21T14:12:46;8.13;;;4.57;;
2452;SDS011;63678;47.994;7.854;2023-11-21T14:15:18;8.83;;;5.03;;
2452;SDS011;63678;47.994;7.854;2023-11-21T14:17:51;9.50;;;5.45;;
2452;SDS011;63678;47.994;7.854;2023-11-21T14:20:23;9.80;;;4.78;;
2452;SDS011;63678;47.994;7.854;2023-11-21T14:22:56;8.95;;;4.57;;
2452;SDS011;63678;47.994;7.854;2023-11-21T14:25:29;7.22;;;4.63;;
2452;SDS011;63678;47.994;7.854;2023-11-21T14:28:02;9.13;;;5.40;;
2452;SDS011;63678;47.994;7.854;2023-11-21T14:30:36;9.05;;;4.93;;
2452;SDS011;63678;47.994;7.854;2023-11-21T14:33:12;8.63;;;5.50;;
2452;SDS011;63678;47.994;7.854;2023-11-21T14:35:45;10.50;;;5.65;;
2452;SDS011;63678;47.994;7.854;2023-11-21T14:38:18;9.52;;;4.80;;
2452;SDS011;63678;47.994;7.854;2023-11-21T14:40:51;9.50;;;5.10;;
2452;SDS011;63678;47.994;7.854;2023-11-21T14:43:24;11.63;;;5.65;;
2452;SDS011;63678;47.994;7.854;2023-11-21T14:45:59;8.85;;;5.15;;
2452;SDS011;63678;47.994;7.854;2023-11-21T14:48:31;9.00;;;4.90;;
2452;SDS011;63678;47.994;7.854;2023-11-21T14:51:19;9.43;;;5.30;;
2452;SDS011;63678;47.994;7.854;2023-11-21T14:53:57;10.90;;;5.67;;
2452;SDS011;63678;47.994;7.854;2023-11-21T14:56:37;8.38;;;5.55;;
2452;SDS011;63678;47.994;7.854;2023-11-21T14:59:10;10.32;;;6.50;;
2452;SDS011;63678;47.994;7.854;2023-11-21T15:01:48;12.48;;;6.40;;
2452;SDS011;63678;47.994;7.854;2023-11-21T15:04:28;10.10;;;5.47;;
2452;SDS011;63678;47.994;7.854;2023-11-21T15:07:11;10.07;;;5.73;;
2452;SDS011;63678;47.994;7.854;2023-11-21T15:09:43;10.00;;;5.00;;
2452;SDS011;63678;47.994;7.854;2023-11-21T15:12:17;12.52;;;5.82;;
2452;SDS011;63678;47.994;7.854;2023-11-21T15:14:51;9.77;;;5.80;;
2452;SDS011;63678;47.994;7.854;2023-11-21T15:17:26;9.50;;;4.85;;
2452;SDS011;63678;47.994;7.854;2023-11-21T15:19:58;9.80;;;5.57;;
2452;SDS011;63678;47.994;7.854;2023-11-21T15:22:32;8.65;;;5.47;;
2452;SDS011;63678;47.994;7.854;2023-11-21T15:25:04;8.55;;;4.93;;
2452;SDS011;63678;47.994;7.854;2023-11-21T15:27:42;44.60;;;17.38;;
2452;SDS011;63678;47.994;7.854;2023-11-21T15:30:15;12.43;;;6.88;;
2452;SDS011;63678;47.994;7.854;2023-11-21T15:32:52;9.20;;;5.37;;
2452;SDS011;63678;47.994;7.854;2023-11-21T15:35:25;12.05;;;5.05;;
2452;SDS011;63678;47.994;7.854;2023-11-21T15:38:00;10.60;;;5.53;;
2452;SDS011;63678;47.994;7.854;2023-11-21T15:40:33;9.25;;;5.15;;
2452;SDS011;63678;47.994;7.854;2023-11-21T15:43:06;8.40;;;5.50;;
2452;SDS011;63678;47.994;7.854;2023-11-21T15:45:39;37.30;;;14.93;;
2452;SDS011;63678;47.994;7.854;2023-11-21T15:48:11;10.55;;;5.28;;
2452;SDS011;63678;47.994;7.854;2023-11-21T15:50:44;9.13;;;5.50;;
2452;SDS011;63678;47.994;7.854;2023-11-21T15:53:18;7.63;;;4.90;;
2452;SDS011;63678;47.994;7.854;2023-11-21T15:55:51;8.02;;;5.10;;
2452;SDS011;63678;47.994;7.854;2023-11-21T15:58:23;8.07;;;4.63;;
2452;SDS011;63678;47.994;7.854;2023-11-21T16:00:57;7.82;;;4.35;;